Latest Weather Observations for Coonabarabran Airport

IDN60801

Issued at 7:12 am EST Monday 28 September 2020 (issued every 10 minutes, with the page automatically refreshed every 10 minutes)

About weather observations | Map of weather stations | Latest weather observations for NSW | Other Formats
Station Details ID: 064017 Name: COONABARABRAN AIRPORT AWS Lat: -31.33 Lon: 149.27 Height: 645.0 m
Data from the previous 72 hours. | See also: Recent months at Coonabarabran Airport
Date/Time
EST
Temp
°C
App
Temp
°C
Dew
Point
°C
Rel
Hum
%
Delta-T
°C
Wind Press
QNH
hPa
Press
MSL
hPa
Rain since
9am
mm
Dir  Spd
km/h
Gust
km/h
Spd
kts
Gust
kts
28/07:00am 5.7 2.4 4.5 92 0.5 S 11 15 6 8 1025.3 1024.2 0.0
28/06:30am 5.0 1.9 3.7 91 0.6 S 9 15 5 8 1024.9 1023.7 0.0
28/06:00am 3.8 0.6 2.8 93 0.4 S 9 17 5 9 1024.7 1023.5 0.0
28/05:30am 4.5 1.0 3.6 94 0.4 SW 11 13 6 7 1024.5 1023.3 0.0
28/05:00am 4.1 0.1 3.1 93 0.4 SW 13 15 7 8 1024.2 1023.0 0.0
28/04:30am 4.4 0.8 3.2 92 0.5 S 11 13 6 7 1023.9 1022.8 0.0
28/04:00am 4.8 0.8 3.1 89 0.7 SSW 13 15 7 8 1023.9 1022.8 0.0
28/03:30am 4.7 0.7 2.6 86 0.9 SSW 13 15 7 8 1023.7 1022.5 0.0
28/03:00am 5.0 0.9 2.4 83 1.1 SSW 13 17 7 9 1023.6 1022.4 0.0
28/02:30am 5.6 1.5 2.4 80 1.4 SSW 13 15 7 8 1023.7 1022.5 0.0
28/02:00am 5.8 1.7 2.1 77 1.6 SSW 13 15 7 8 1024.0 1022.9 0.0
28/01:30am 6.1 2.4 2.2 76 1.7 SSW 11 15 6 8 1024.2 1023.0 0.0
28/01:00am 5.9 2.1 2.0 76 1.6 SSW 11 13 6 7 1024.4 1023.2 0.0
28/12:30am 5.9 2.1 2.0 76 1.6 SSW 11 15 6 8 1024.7 1023.5 0.0
28/12:00am 6.3 2.2 2.4 76 1.7 SSW 13 17 7 9 1024.8 1023.6 0.0
 
Date/Time
EST
Temp
°C
App
Temp
°C
Dew
Point
°C
Rel
Hum
%
Delta-T
°C
Wind Press
QNH
hPa
Press
MSL
hPa
Rain since
9am
mm
Dir  Spd
km/h
Gust
km/h
Spd
kts
Gust
kts
27/11:30pm 6.2 2.1 2.3 76 1.7 SSW 13 15 7 8 1025.0 1023.8 0.0
27/11:00pm 6.3 2.2 2.0 74 1.8 SSW 13 17 7 9 1025.2 1024.1 0.0
27/10:30pm 6.7 2.6 2.4 74 1.8 SSW 13 15 7 8 1025.3 1024.2 0.0
27/10:00pm 6.9 2.9 2.6 74 1.8 SSW 13 15 7 8 1025.3 1024.2 0.0
27/09:30pm 7.0 3.4 2.7 74 1.9 SSW 11 15 6 8 1025.3 1024.2 0.0
27/09:00pm 7.5 4.3 2.8 72 2.0 SSW 9 11 5 6 1025.1 1023.9 0.0
27/08:30pm 7.7 4.5 2.8 71 2.1 SSW 9 13 5 7 1024.9 1023.7 0.0
27/08:00pm 7.7 4.0 2.6 70 2.2 S 11 13 6 7 1024.7 1023.5 0.0
27/07:30pm 8.3 4.7 2.8 68 2.4 S 11 13 6 7 1024.5 1023.3 0.0
27/07:00pm 8.9 5.3 2.7 65 2.7 S 11 15 6 8 1024.0 1022.9 0.0
27/06:30pm 10.1 6.5 2.7 60 3.3 S 11 17 6 9 1023.6 1022.4 0.0
27/06:00pm 11.1 6.6 2.4 55 3.9 SSW 15 20 8 11 1023.2 1022.0 0.0
27/05:30pm 11.8 7.7 2.5 53 4.2 S 13 22 7 12 1022.9 1021.7 0.0
27/05:00pm 11.3 6.4 2.1 53 4.1 S 17 24 9 13 1022.7 1021.5 0.0
27/04:30pm 13.8 8.5 3.0 48 5.0 S 20 28 11 15 1022.3 1021.1 0.0
27/04:00pm 13.0 7.5 2.0 47 4.9 SSW 20 30 11 16 1022.2 1021.0 0.0
27/03:30pm 12.9 7.0 1.9 47 4.9 SSW 22 30 12 16 1022.2 1021.0 0.0
27/03:00pm 14.5 9.1 2.7 45 5.4 S 20 28 11 15 1022.1 1020.9 0.0
27/02:30pm 14.5 9.1 2.7 45 5.5 SW 20 26 11 14 1022.2 1021.0 0.0
27/02:00pm 15.1 9.4 3.0 44 5.6 WSW 22 33 12 18 1022.3 1021.1 0.0
27/01:30pm 14.2 8.8 1.5 42 5.7 SW 19 28 10 15 1022.7 1021.5 0.0
27/01:00pm 13.8 7.9 1.8 44 5.4 WSW 22 35 12 19 1023.0 1021.8 0.0
27/12:30pm 13.0 7.5 0.7 43 5.4 SW 19 28 10 15 1023.3 1022.1 0.0
27/12:00pm 13.3 8.8 2.2 47 5.0 SW 15 24 8 13 1023.5 1022.3 0.0
27/11:30am 13.3 8.2 3.1 50 4.7 S 19 30 10 16 1023.7 1022.5 0.0
27/11:00am 12.1 6.6 1.7 49 4.6 SW 20 28 11 15 1024.2 1023.0 0.0
27/10:30am 11.9 5.7 2.1 51 4.4 SW 24 37 13 20 1024.5 1023.3 0.0
27/10:00am 11.5 6.1 2.3 53 4.1 SSW 20 28 11 15 1024.6 1023.4 0.0
27/09:30am 10.8 5.5 3.1 59 3.5 S 20 32 11 17 1024.5 1023.3 0.0
27/09:00am 10.0 3.9 2.8 61 3.2 S 24 35 13 19 1024.3 1023.1 0.0
27/08:30am 9.1 3.7 2.7 64 2.8 S 20 30 11 16 1023.7 1022.5 0.0
27/08:00am 8.0 2.6 2.3 67 2.5 S 20 26 11 14 1023.5 1022.3 0.0
27/07:30am 6.9 2.0 2.0 71 2.1 SSW 17 22 9 12 1023.2 1022.0 0.0
27/07:00am 5.8 0.8 1.2 72 1.9 SSW 17 20 9 11 1022.7 1021.5 0.0
27/06:30am 4.7 -0.4 0.7 75 1.6 SSW 17 26 9 14 1022.0 1020.8 0.0
27/06:00am 4.3 -0.9 0.3 75 1.6 SSW 17 24 9 13 1021.6 1020.4 0.0
27/05:30am 4.6 -1.0 0.0 72 1.8 SW 19 26 10 14 1021.2 1020.0 0.0
27/05:00am 4.7 -1.1 -0.1 71 1.9 SW 20 26 11 14 1020.8 1019.5 0.0
27/04:30am 4.8 -1.0 0.0 71 1.9 SW 20 26 11 14 1020.8 1019.5 0.0
27/04:00am 4.9 -0.9 0.1 71 1.9 SW 20 28 11 15 1020.4 1019.2 0.0
27/03:30am 5.1 -0.6 0.5 72 1.9 SW 20 24 11 13 1020.5 1019.3 0.0
27/03:00am 5.1 0.0 0.7 73 1.8 WSW 17 20 9 11 1020.5 1019.3 0.0
27/02:30am 5.2 0.5 1.1 75 1.7 WSW 15 20 8 11 1020.6 1019.4 0.0
27/02:00am 5.4 0.4 1.3 75 1.7 WSW 17 20 9 11 1020.8 1019.5 0.0
27/01:30am 5.4 0.8 1.3 75 1.7 WSW 15 19 8 10 1020.9 1019.6 0.0
27/01:00am 5.5 1.2 1.1 73 1.8 WSW 13 19 7 10 1021.1 1019.8 0.0
27/12:30am 5.7 1.0 1.2 73 1.9 WSW 15 19 8 10 1021.2 1020.0 0.0
27/12:00am 4.4 0.1 0.9 78 1.4 W 13 15 7 8 1021.3 1020.1 0.0
 
Date/Time
EST
Temp
°C
App
Temp
°C
Dew
Point
°C
Rel
Hum
%
Delta-T
°C
Wind Press
QNH
hPa
Press
MSL
hPa
Rain since
9am
mm
Dir  Spd
km/h
Gust
km/h
Spd
kts
Gust
kts
26/11:30pm 4.6 0.3 0.9 77 1.5 WSW 13 17 7 9 1021.1 1019.8 0.0
26/11:00pm 5.3 1.5 1.6 77 1.5 WSW 11 15 6 8 1020.9 1019.6 0.0
26/10:30pm 5.2 1.0 1.9 79 1.4 WSW 13 15 7 8 1021.1 1019.8 0.0
26/10:00pm 5.3 1.2 2.5 82 1.2 WSW 13 15 7 8 1021.1 1019.8 0.0
26/09:30pm 5.5 1.4 2.0 78 1.5 WSW 13 17 7 9 1021.1 1019.8 0.0
26/09:00pm 6.2 1.7 1.9 74 1.8 WSW 15 22 8 12 1021.0 1019.7 0.0
26/08:30pm 6.5 1.2 1.6 71 2.1 SW 19 26 10 14 1020.8 1019.5 0.0
26/08:00pm 7.1 1.5 1.2 66 2.5 SW 20 26 11 14 1020.4 1019.2 0.0
26/07:30pm 6.9 1.7 0.4 63 2.7 WSW 17 19 9 10 1020.0 1018.8 0.0
26/07:00pm 7.4 2.6 -0.1 59 3.0 WSW 15 19 8 10 1019.5 1018.2 0.0
26/06:30pm 7.9 3.0 -0.3 56 3.3 WSW 15 20 8 11 1019.0 1017.8 0.0
26/06:00pm 8.3 3.0 -0.4 54 3.5 SW 17 22 9 12 1018.6 1017.4 0.0
26/05:30pm 9.4 2.8 -0.2 51 4.0 SW 24 33 13 18 1018.2 1016.9 0.0
26/05:00pm 10.2 3.5 -0.9 46 4.5 SW 24 35 13 19 1017.8 1016.5 0.0
26/04:30pm 11.3 5.2 0.7 48 4.6 SW 22 30 12 16 1017.5 1016.2 0.0
26/04:00pm 11.7 5.1 -0.1 44 5.0 WSW 24 33 13 18 1017.1 1015.9 0.0
26/03:30pm 11.6 4.6 -0.2 44 5.0 SW 26 35 14 19 1016.9 1015.6 0.0
26/03:00pm 11.3 4.8 0.1 46 4.8 SW 24 37 13 20 1016.7 1015.4 0.0
26/02:30pm 11.9 4.7 0.7 46 4.8 WSW 28 39 15 21 1016.5 1015.2 0.0
26/02:00pm 11.8 4.1 -0.4 43 5.1 WSW 30 41 16 22 1016.6 1015.3 0.0
26/01:32pm 10.8 3.5 -0.3 46 4.6 WSW 28 50 15 27 1016.7 1015.4 0.0
26/01:30pm 11.3 4.4 0.4 47 4.7 WSW 26 50 14 27 1016.7 1015.4 0.0
26/01:00pm 10.5 2.6 1.1 52 4.0 WSW 32 52 17 28 1016.9 1015.6 0.0
26/12:33pm 9.8 1.8 0.2 51 4.0 WSW 32 50 17 27 1016.9 1015.6 0.0
26/12:30pm 10.1 2.4 0.2 50 4.2 WSW 30 41 16 22 1016.9 1015.6 0.0
26/12:08pm 9.9 2.7 0.5 52 4.0 SW 28 46 15 25 1016.9 1015.6 0.0
26/12:00pm 11.0 4.3 1.3 51 4.2 SW 26 41 14 22 1016.8 1015.5 0.0
26/11:30am 9.9 2.4 1.3 55 3.7 WSW 30 48 16 26 1016.9 1015.6 0.0
26/11:00am 9.0 1.8 0.7 56 3.5 SW 28 46 15 25 1017.1 1015.9 0.0
26/10:30am 8.4 -0.1 0.9 59 3.2 WSW 35 46 19 25 1017.2 1016.0 0.0
26/10:00am 8.3 1.6 1.5 62 2.9 WSW 26 37 14 20 1017.3 1016.1 0.0
26/09:30am 7.1 -0.9 1.4 67 2.4 WSW 33 43 18 23 1017.1 1015.9 0.0
26/09:00am 6.4 -0.2 1.9 73 1.9 WSW 26 35 14 19 1017.0 1015.8 0.8
26/08:30am 6.4 0.2 2.3 75 1.7 W 24 37 13 20 1016.6 1015.3 0.8
26/08:00am 5.7 -0.1 2.5 80 1.4 W 22 32 12 17 1016.3 1015.0 0.8
26/07:30am 5.1 0.5 1.8 79 1.4 W 15 26 8 14 1015.6 1014.3 0.8
26/07:00am 4.4 0.5 1.4 81 1.2 WSW 11 17 6 9 1015.3 1014.0 0.8
26/06:30am 3.5 0.0 1.2 85 0.9 WSW 9 17 5 9 1014.8 1013.5 0.8
26/06:00am 2.5 -1.1 0.9 89 0.6 W 9 15 5 8 1014.4 1013.1 0.8
26/05:30am 3.0 -1.7 1.2 88 0.7 WSW 15 22 8 12 1014.2 1012.8 0.8
26/05:00am 2.9 -1.4 1.3 89 0.6 WSW 13 20 7 11 1013.6 1012.3 0.8
26/04:30am 3.3 -1.3 1.5 88 0.7 WSW 15 19 8 10 1013.2 1011.9 0.8
26/04:00am 3.5 -1.5 1.5 87 0.8 SW 17 22 9 12 1012.8 1011.4 0.8
26/03:30am 3.7 -3.0 1.7 87 0.8 SW 26 32 14 17 1012.3 1011.0 0.8
26/03:00am 3.7 -2.6 1.4 85 0.9 SW 24 33 13 18 1012.3 1011.0 0.8
26/02:30am 3.9 -2.4 1.3 83 1.1 SW 24 39 13 21 1012.1 1010.8 0.8
26/02:00am 4.2 -3.7 1.1 80 1.3 SW 32 43 17 23 1011.9 1010.6 0.8
26/01:30am 4.3 -3.6 0.8 78 1.4 SW 32 43 17 23 1012.2 1010.9 0.8
26/01:00am 4.8 -3.4 0.6 74 1.7 WSW 33 50 18 27 1012.0 1010.7 0.8
26/12:30am 5.0 -2.6 0.6 73 1.8 WSW 30 48 16 26 1012.1 1010.8 0.8
26/12:01am 5.2 -2.4 0.8 73 1.8 WSW 30 48 16 26 1012.1 1010.8 0.8
26/12:00am 5.3 -2.6 0.9 73 1.8 WSW 32 48 17 26 1012.1 1010.8 0.8
 
Date/Time
EST
Temp
°C
App
Temp
°C
Dew
Point
°C
Rel
Hum
%
Delta-T
°C
Wind Press
QNH
hPa
Press
MSL
hPa
Rain since
9am
mm
Dir  Spd
km/h
Gust
km/h
Spd
kts
Gust
kts
25/11:30pm 5.0 -1.3 1.7 79 1.4 WSW 24 35 13 19 1012.0 1010.7 0.8
25/11:00pm 5.1 -1.9 2.1 81 1.3 WSW 28 46 15 25 1011.9 1010.6 0.8
25/10:59pm 5.2 -1.8 2.0 80 1.3 WSW 28 46 15 25 1011.9 1010.6 0.8
25/10:30pm 4.9 -0.6 1.7 80 1.3 WSW 20 33 11 18 1012.1 1010.8 0.8
25/10:00pm 5.2 -1.4 2.0 80 1.3 WSW 26 39 14 21 1011.9 1010.6 0.8
25/09:30pm 5.0 -2.8 2.0 81 1.3 SW 32 48 17 26 1011.6 1010.2 0.8
25/09:21pm 5.1 -2.6 2.1 81 1.3 SW 32 48 17 26 1011.5 1010.1 0.8
25/09:00pm 4.7 -0.5 2.2 84 1.0 SW 19 30 10 16 1011.6 1010.2 0.8
25/08:30pm 5.0 -1.1 2.5 84 1.1 SW 24 35 13 19 1011.4 1010.0 0.8
25/08:00pm 5.3 -0.8 2.8 84 1.1 SW 24 33 13 18 1011.3 1009.9 0.8
25/07:45pm 5.2 -1.6 3.2 87 0.9 SW 28 46 15 25 1011.0 1009.6 0.8
25/07:30pm 5.1 -2.5 3.0 86 0.9 SW 32 46 17 25 1010.3 1009.0 0.8
25/07:00pm 6.3 -2.0 2.2 75 1.7 WSW 35 63 19 34 1009.9 1008.5 0.8
25/06:30pm 6.1 -0.5 4.1 87 0.9 WSW 28 46 15 25 1009.3 1007.9 0.6
25/06:22pm 6.1 -0.5 4.3 88 0.8 SW 28 46 15 25 1009.0 1007.7 0.6
25/06:16pm 6.1 -0.1 4.4 89 0.8 WSW 26 44 14 24 1008.7 1007.3 0.6
25/06:00pm 6.0 0.0 5.1 94 0.4 SW 26 39 14 21 1008.8 1007.4 0.4
25/05:33pm 6.5 -1.5 5.9 96 0.3 SW 37 56 20 30 1008.3 1006.9 0.4
25/05:30pm 6.5 -1.8 5.9 96 0.3 SW 39 56 21 30 1008.0 1006.6 0.4
25/05:00pm 7.7 -0.1 6.8 94 0.4 SW 37 56 20 30 1007.4 1006.0 0.2
25/04:55pm 8.2 0.5 7.1 93 0.5 SW 37 56 20 30 1007.2 1005.8 0.2
25/04:30pm 10.8 2.8 7.3 79 1.7 WSW 39 61 21 33 1006.1 1004.6 0.0
25/04:22pm 12.3 1.1 5.7 64 3.2 WNW 54 78 29 42 1005.8 1004.4 0.0
25/04:16pm 13.5 2.0 4.6 55 4.3 WNW 54 78 29 42 1004.7 1003.2 0.0
25/04:14pm 13.6 2.1 4.2 53 4.5 NW 54 80 29 43 1004.5 1003.0 0.0
25/04:00pm 16.5 6.4 0.2 33 7.3 NW 43 69 23 37 1004.3 1002.8 0.0
25/03:30pm 17.5 6.2 -1.2 28 8.2 NW 48 69 26 37 1004.0 1002.6 0.0
25/03:00pm 18.1 7.7 -1.7 26 8.7 NW 43 65 23 35 1004.5 1003.0 0.0
25/02:30pm 19.5 7.7 -2.2 23 9.5 NW 50 72 27 39 1004.4 1002.9 0.0
25/02:00pm 19.2 8.5 0.3 28 8.7 NW 46 69 25 37 1005.0 1003.6 0.0
25/01:47pm 18.6 6.3 -0.2 28 8.5 NW 54 76 29 41 1004.8 1003.3 0.0
25/01:30pm 19.8 11.1 2.2 31 8.4 NW 37 57 20 31 1005.4 1004.0 0.0
25/01:00pm 18.5 9.3 1.1 31 8.1 NW 39 69 21 37 1006.0 1004.5 0.0
25/12:30pm 18.3 7.8 1.3 32 7.9 NW 46 65 25 35 1006.4 1005.0 0.0
25/12:00pm 18.0 8.1 1.5 33 7.7 NNW 43 67 23 36 1007.3 1005.9 0.0
25/11:30am 17.9 8.1 2.2 35 7.4 NNW 43 63 23 34 1008.1 1006.7 0.0
25/11:00am 17.3 7.5 2.1 36 7.1 NNW 43 61 23 33 1008.7 1007.3 0.0
25/10:30am 16.8 8.5 2.4 38 6.7 NW 35 54 19 29 1009.5 1008.1 0.0
25/10:19am 16.9 9.1 1.4 35 7.1 NNW 32 54 17 29 1009.7 1008.3 0.0
25/10:00am 16.2 8.4 1.9 38 6.6 NNW 32 44 17 24 1010.0 1008.6 0.0
25/09:30am 15.4 10.2 2.2 41 6.1 NNW 19 28 10 15 1011.0 1009.6 0.0
25/09:00am 13.8 8.2 1.5 43 5.5 NNW 20 32 11 17 1011.3 1009.9 0.0
25/08:30am 12.0 7.1 1.9 50 4.5 NNW 17 24 9 13 1011.5 1010.1 0.0
25/08:00am 10.9 6.1 2.5 56 3.8 N 17 22 9 12 1011.4 1010.0 0.0
25/07:30am 9.4 4.7 2.9 64 2.9 N 17 20 9 11 1011.5 1010.1 0.0

Other formats

Comma delimited format used in spreadsheet applications
http://www.bom.gov.au/fwo/IDN60801/IDN60801.95728.axf

JavaScript Object Notation format (JSON) in row-major order
http://www.bom.gov.au/fwo/IDN60801/IDN60801.95728.json

Data quality

Most of these data are generated automatically and are frequently updated. Quality checks on data are not normally performed. It is possible for incorrect values to appear. Refer to information at About Latest Weather Observations and please check the disclaimer before using these data.